« Back
NWS Peachtree City, Ga » Text Product » MCN Terminal Aerodrome Forecast


Printer-friendly Version
Current Version              Previous Versions:   1  2  3  4  5  6  7  8  9  

Terminal Aerodrome Forecast

662
FTUS42 KFFC 260549
TAFMCN
TAF
KMCN 260549Z 2606/2706 12004KT P6SM FEW100 SCT250
     FM261000 12003KT P6SM FEW015
     FM261400 14006KT P6SM FEW035
     FM261800 16007KT P6SM VCSH SCT045 PROB30 2623/2703 6SM -TSRA
      OVC035CB
     FM270400 21002KT 6SM BR VCSH BKN050 BKN100=

USA.gov is the U.S. government's official web portal to all federal, state and local government web resources and services.